Flight Track Log - Related Links

Times and Time Zones

All times are in EDT time to prevent confusion due to time zone crossing. See the AAY272 flight status page for this flight to view local times or setup timezone preferences in your user account.

Time Position Orientation Groundspeed Altitude Reporting Facility
EDT Latitude Longitude Course Direction KTS MPH feet Rate Location/Type
Sun 04:46:01 PM 36.0753 -115.1739 266° West 173 199 3,000  Level Los Center
Sun 04:47:08 PM 36.0706 -115.2525 266° West 220 253 5,000 1,781 Climbing Los Center
Sun 04:48:09 PM 36.0072 -115.2892 205° Southwest 272 313 6,800 2,381 Climbing Los Center
Sun 04:49:14 PM 35.9433 -115.3392 212° Southwest 271 312 10,000 1,986 Climbing Los Center
Sun 04:50:28 PM 35.9233 -115.4378 256° West 293 337 11,400 1,927 Climbing Los Center
Sun 04:51:31 PM 35.9158 -115.5836 266° West 336 387 14,400 2,496 Climbing Los Center
Sun 04:52:33 PM 35.9078 -115.7161 266° West 362 417 16,600 1,548 Climbing Los Center
Sun 04:53:35 PM 35.9011 -115.8481 266° West 390 449 17,600 1,113 Climbing Los Center
Sun 04:54:37 PM 35.9247 -115.9667 284° West 415 478 18,900 1,742 Climbing Los Center
Sun 04:55:39 PM 35.9708 -116.1381 288° West 427 491 21,200 1,984 Climbing Los Center
Sun 04:56:41 PM 36.0064 -116.2853 287° West 438 504 23,000 1,632 Climbing Los Center
Sun 04:57:44 PM 36.0406 -116.4328 286° West 444 511 24,600 1,680 Climbing Los Center
Sun 04:58:46 PM 36.0781 -116.5781 288° West 447 514 26,500 1,694 Climbing Los Center
Sun 04:59:48 PM 36.1233 -116.7153 292° West 438 504 28,100 1,452 Climbing Los Center
Sun 05:00:50 PM 36.1772 -116.8486 297° West 435 501 29,500 919 Climbing Los Center
Sun 05:01:52 PM 36.2436 -117.0075 297° West 435 501 30,000 242 Climbing Los Center
Sun 05:02:54 PM 36.2867 -117.1131 297° West 433 498 30,000  Level Los Center
Sun 05:03:56 PM 36.3533 -117.2714 298° West 434 499 30,000  Level Los Center
Sun 05:04:58 PM 36.3947 -117.4097 290° West 432 497 30,000  Level Los Center
Sun 05:06:00 PM 36.4194 -117.5564 282° West 435 501 30,000 -339 Level Los Center
Sun 05:07:02 PM 36.4517 -117.7281 283° West 432 497 29,300 -677 Descending Los Center
Sun 05:08:04 PM 36.4758 -117.8739 282° West 430 495 28,600 -864 Descending Los Center
Sun 05:09:07 PM 36.5008 -118.0169 282° West 430 495 27,500 -1,056 Descending Los Center
Sun 05:10:09 PM 36.5244 -118.1561 282° West 419 482 26,400 -1,575 Descending Los Center
Sun 05:10:27 PM 36.5322 -118.2089 280° West 419 482 25,400 -3,600 Descending Oakland Center
Sun 05:11:29 PM 36.5544 -118.3494 281° West 415 478 21,600 -2,634 Descending Oakland Center
Sun 05:12:30 PM 36.5853 -118.5039 284° West 411 473 20,000 -787 Descending Oakland Center
Sun 05:13:31 PM 36.6036 -118.6219 281° West 391 450 20,000 -98 Level Oakland Center
Sun 05:14:33 PM 36.6125 -118.7542 275° West 386 444 19,800 -1,171 Descending Oakland Center
Sun 05:15:34 PM 36.6236 -118.8836 276° West 380 437 17,600 -2,115 Descending Oakland Center
Sun 05:16:35 PM 36.6342 -119.0353 275° West 365 420 15,500 -1,463 Descending Oakland Center
Sun 05:17:37 PM 36.6444 -119.1478 277° West 329 379 14,600 -1,756 Descending Oakland Center
Sun 05:18:38 PM 36.6497 -119.2578 273° West 320 368 11,900 -2,410 Descending Oakland Center
Sun 05:19:39 PM 36.6578 -119.3703 275° West 325 374 9,700 -1,951 Descending Oakland Center
Sun 05:20:41 PM 36.6442 -119.4653 260° West 284 327 7,900 -1,742 Descending Oakland Center

Login

Don't have an account? Register now (free) for customized features, flight alerts, and more!